createdAt,value
2023-02-19T00:01:45.513Z,10.65
2023-02-19T00:04:18.459Z,10.80
2023-02-19T00:06:46.898Z,10.93
2023-02-19T00:09:16.190Z,9.10
2023-02-19T00:11:44.815Z,8.98
2023-02-19T00:14:16.698Z,8.98
2023-02-19T00:16:43.932Z,8.98
2023-02-19T00:19:15.380Z,32.08
2023-02-19T00:21:42.770Z,31.67
2023-02-19T00:24:13.466Z,34.30
2023-02-19T00:26:42.071Z,15.40
2023-02-19T00:29:13.074Z,21.38
2023-02-19T00:31:40.658Z,14.45
2023-02-19T00:34:09.572Z,12.43
2023-02-19T00:36:39.110Z,19.05
2023-02-19T00:39:08.076Z,11.38
2023-02-19T00:41:35.574Z,8.32
2023-02-19T00:44:06.404Z,7.80
2023-02-19T00:46:40.097Z,21.15
2023-02-19T00:49:13.369Z,12.50
2023-02-19T00:51:40.553Z,26.02
2023-02-19T00:54:07.784Z,15.25
2023-02-19T00:56:35.105Z,15.50
2023-02-19T00:59:02.289Z,17.52
2023-02-19T01:01:31.575Z,11.82
2023-02-19T01:03:58.905Z,11.15
2023-02-19T01:06:26.197Z,10.73
2023-02-19T01:08:53.942Z,10.38
2023-02-19T01:11:21.221Z,12.98
2023-02-19T01:13:48.843Z,12.88
2023-02-19T01:16:22.067Z,12.02
2023-02-19T01:18:49.532Z,12.68
2023-02-19T01:21:25.135Z,12.93
2023-02-19T01:26:25.673Z,11.13
2023-02-19T01:28:53.343Z,11.32
2023-02-19T01:31:23.388Z,9.65
2023-02-19T01:33:53.859Z,8.60
2023-02-19T01:36:21.299Z,8.80
2023-02-19T01:38:49.809Z,10.13
2023-02-19T01:41:20.391Z,8.95
2023-02-19T01:44:09.070Z,9.30
2023-02-19T01:46:41.524Z,10.68
2023-02-19T01:49:14.900Z,10.13
2023-02-19T01:51:48.368Z,9.80
2023-02-19T01:54:18.963Z,8.40
2023-02-19T01:56:48.414Z,9.07
2023-02-19T01:59:16.715Z,9.93
2023-02-19T02:01:44.160Z,13.98
2023-02-19T02:04:13.556Z,11.18
2023-02-19T02:06:50.634Z,10.60
2023-02-19T02:09:40.671Z,10.43
2023-02-19T02:12:08.113Z,11.27
2023-02-19T02:14:41.254Z,11.30
2023-02-19T02:17:27.756Z,10.05
2023-02-19T02:20:27.026Z,11.00
2023-02-19T02:23:21.518Z,11.27
2023-02-19T02:26:17.079Z,10.82
2023-02-19T02:29:07.326Z,14.77
2023-02-19T02:32:07.894Z,14.82
2023-02-19T02:34:48.391Z,15.45
2023-02-19T02:37:17.187Z,15.43
2023-02-19T02:39:47.021Z,15.98
2023-02-19T02:42:34.258Z,14.68
2023-02-19T02:45:48.008Z,13.00
2023-02-19T02:48:55.537Z,15.05
2023-02-19T02:51:50.287Z,15.48
2023-02-19T02:54:47.838Z,17.13
2023-02-19T02:57:19.125Z,16.08
2023-02-19T02:59:51.334Z,17.23
2023-02-19T03:02:26.408Z,16.58
2023-02-19T03:05:35.608Z,16.33
2023-02-19T03:08:25.660Z,14.05
2023-02-19T03:11:24.014Z,15.10
2023-02-19T03:14:15.299Z,13.10
2023-02-19T03:17:04.865Z,14.55
2023-02-19T03:19:40.195Z,17.00
2023-02-19T03:22:31.292Z,15.60
2023-02-19T03:25:29.982Z,13.93
2023-02-19T03:28:01.726Z,10.65
2023-02-19T03:30:33.660Z,11.43
2023-02-19T03:33:12.163Z,9.27
2023-02-19T03:36:09.131Z,7.18
2023-02-19T03:38:47.592Z,7.88
2023-02-19T03:41:37.048Z,7.32
2023-02-19T03:44:34.582Z,9.18
2023-02-19T03:47:22.820Z,7.20
2023-02-19T03:49:58.911Z,9.40
2023-02-19T03:52:46.774Z,9.10
2023-02-19T03:55:22.976Z,8.60
2023-02-19T03:58:01.916Z,7.05
2023-02-19T04:00:41.425Z,7.88
2023-02-19T04:03:18.436Z,8.02
2023-02-19T04:05:52.043Z,9.38
2023-02-19T04:08:22.757Z,8.40
2023-02-19T04:11:00.458Z,9.48
2023-02-19T04:13:37.057Z,10.55
2023-02-19T04:16:09.399Z,10.32
2023-02-19T04:18:44.228Z,7.57
2023-02-19T04:21:12.872Z,10.25
2023-02-19T04:23:44.744Z,9.48
2023-02-19T04:26:14.556Z,9.55
2023-02-19T04:28:44.193Z,9.32
2023-02-19T04:31:12.670Z,10.32
2023-02-19T04:33:40.181Z,7.60
2023-02-19T04:36:09.795Z,8.77
2023-02-19T04:38:36.942Z,7.22
2023-02-19T04:41:04.253Z,8.32
2023-02-19T04:43:31.392Z,8.82
2023-02-19T04:46:02.380Z,6.82
2023-02-19T04:48:29.812Z,7.25
2023-02-19T04:50:57.114Z,6.95
2023-02-19T04:53:24.342Z,8.18
2023-02-19T04:55:53.428Z,7.47
2023-02-19T04:58:21.672Z,9.18
2023-02-19T05:00:53.238Z,8.60
2023-02-19T05:03:20.519Z,11.13
2023-02-19T05:05:47.752Z,10.68
2023-02-19T05:08:14.974Z,8.23
2023-02-19T05:10:42.312Z,7.05
2023-02-19T05:13:09.632Z,6.93
2023-02-19T05:15:36.882Z,8.63
2023-02-19T05:18:04.410Z,8.77
2023-02-19T05:20:31.490Z,9.05
2023-02-19T05:22:58.660Z,6.15
2023-02-19T05:25:25.841Z,7.75
2023-02-19T05:28:12.944Z,8.45
2023-02-19T05:30:40.171Z,6.85
2023-02-19T05:33:07.284Z,6.45
2023-02-19T05:35:34.551Z,8.27
2023-02-19T05:38:01.700Z,8.57
2023-02-19T05:40:28.902Z,7.00
2023-02-19T05:42:55.981Z,7.15
2023-02-19T05:45:23.244Z,7.72
2023-02-19T05:47:50.674Z,9.32
2023-02-19T05:50:17.984Z,9.65
2023-02-19T05:52:45.263Z,9.38
2023-02-19T05:55:12.910Z,6.93
2023-02-19T05:57:43.636Z,6.82
2023-02-19T06:00:18.343Z,10.05
2023-02-19T06:02:46.157Z,7.03
2023-02-19T06:05:14.158Z,9.55
2023-02-19T06:07:42.991Z,9.98
2023-02-19T06:10:11.383Z,6.97
2023-02-19T06:12:39.422Z,7.22
2023-02-19T06:15:07.376Z,10.45
2023-02-19T06:17:35.224Z,8.68
2023-02-19T06:20:02.626Z,9.35
2023-02-19T06:22:29.871Z,8.55
2023-02-19T06:24:57.038Z,7.97
2023-02-19T06:27:24.283Z,11.93
2023-02-19T06:29:51.525Z,11.25
2023-02-19T06:32:19.023Z,10.02
2023-02-19T06:34:46.314Z,13.93
2023-02-19T06:37:13.508Z,11.10
2023-02-19T06:39:40.694Z,11.65
2023-02-19T06:42:07.845Z,9.73
2023-02-19T06:44:35.236Z,11.52
2023-02-19T06:47:02.388Z,17.25
2023-02-19T06:49:29.677Z,11.48
2023-02-19T06:51:56.890Z,11.63
2023-02-19T06:54:25.796Z,11.20
2023-02-19T06:56:53.208Z,10.73
2023-02-19T06:59:20.407Z,10.05
2023-02-19T07:01:47.571Z,10.38
2023-02-19T07:04:14.927Z,11.25
2023-02-19T07:06:42.385Z,9.38
2023-02-19T07:09:10.223Z,12.85
2023-02-19T07:11:39.877Z,10.52
2023-02-19T07:14:13.436Z,8.32
2023-02-19T07:16:40.695Z,8.77
2023-02-19T07:19:07.901Z,9.18
2023-02-19T07:21:37.882Z,9.85
2023-02-19T07:24:05.817Z,10.38
2023-02-19T07:26:33.045Z,10.30
2023-02-19T07:29:00.274Z,9.27
2023-02-19T07:31:27.940Z,9.27
2023-02-19T07:33:55.554Z,14.77
2023-02-19T07:36:24.484Z,12.20
2023-02-19T07:38:58.557Z,9.32
2023-02-19T07:41:27.225Z,12.85
2023-02-19T07:43:57.391Z,13.60
2023-02-19T07:46:24.913Z,11.75
2023-02-19T07:48:52.199Z,13.70
2023-02-19T07:51:20.683Z,14.10
2023-02-19T07:53:52.804Z,10.02
2023-02-19T07:56:20.814Z,11.25
2023-02-19T07:58:47.962Z,15.52
2023-02-19T08:01:19.292Z,11.68
2023-02-19T08:03:48.267Z,12.20
2023-02-19T08:06:17.373Z,12.40
2023-02-19T08:08:44.558Z,12.27
2023-02-19T08:11:31.664Z,11.32
2023-02-19T08:13:58.881Z,12.82
2023-02-19T08:16:42.061Z,10.25
2023-02-19T08:19:10.460Z,12.07
2023-02-19T08:21:37.577Z,12.70
2023-02-19T08:24:05.108Z,13.23
2023-02-19T08:26:33.660Z,11.55
2023-02-19T08:29:00.899Z,11.60
2023-02-19T08:31:28.162Z,11.93
2023-02-19T08:33:55.543Z,13.50
2023-02-19T08:36:22.677Z,11.20
2023-02-19T08:38:50.015Z,9.98
2023-02-19T08:41:17.225Z,11.05
2023-02-19T08:43:44.892Z,11.18
2023-02-19T08:46:12.664Z,13.70
2023-02-19T08:48:40.833Z,13.63
2023-02-19T08:51:10.737Z,16.67
2023-02-19T08:53:39.926Z,21.67
2023-02-19T08:56:13.880Z,17.88
2023-02-19T08:58:41.206Z,20.65
2023-02-19T09:01:11.015Z,18.20
2023-02-19T09:03:38.443Z,17.23
2023-02-19T09:06:05.763Z,20.10
2023-02-19T09:08:33.083Z,24.17
2023-02-19T09:11:03.603Z,25.80
2023-02-19T09:13:31.132Z,27.98
2023-02-19T09:15:58.392Z,36.17
2023-02-19T09:18:26.579Z,30.88
2023-02-19T09:20:53.874Z,36.20
2023-02-19T09:23:21.271Z,36.45
2023-02-19T09:25:48.456Z,33.10
2023-02-19T09:28:16.922Z,30.90
2023-02-19T09:30:44.119Z,32.15
2023-02-19T09:33:11.443Z,31.38
2023-02-19T09:35:40.695Z,29.27
2023-02-19T09:38:10.497Z,28.73
2023-02-19T09:40:38.966Z,23.85
2023-02-19T09:43:12.045Z,23.77
2023-02-19T09:45:40.113Z,23.77
2023-02-19T09:48:07.645Z,27.00
2023-02-19T09:50:42.622Z,21.95
2023-02-19T09:53:23.593Z,23.23
2023-02-19T09:55:52.626Z,22.08
2023-02-19T09:58:30.865Z,21.88
2023-02-19T10:01:00.221Z,20.27
2023-02-19T10:03:35.057Z,16.27
2023-02-19T10:06:29.325Z,18.52
2023-02-19T10:09:34.060Z,14.45
2023-02-19T10:12:01.572Z,16.55
2023-02-19T10:14:36.988Z,16.25
2023-02-19T10:17:06.155Z,14.90
2023-02-19T10:19:34.838Z,14.80
2023-02-19T10:22:03.741Z,15.73
2023-02-19T10:24:31.560Z,13.00
2023-02-19T10:26:58.809Z,13.60
2023-02-19T10:29:27.641Z,13.48
2023-02-19T10:32:23.920Z,14.93
2023-02-19T10:35:13.159Z,14.00
2023-02-19T10:37:49.805Z,14.23
2023-02-19T10:40:26.326Z,14.25
2023-02-19T10:43:00.009Z,12.70
2023-02-19T10:48:24.831Z,15.68
2023-02-19T10:51:05.108Z,12.70
2023-02-19T10:53:45.428Z,16.25
2023-02-19T10:56:33.902Z,12.35
2023-02-19T10:59:24.421Z,13.35
2023-02-19T11:02:06.521Z,13.80
2023-02-19T11:04:35.592Z,9.65
2023-02-19T11:07:10.964Z,10.65
2023-02-19T11:09:40.599Z,9.23
2023-02-19T11:12:09.639Z,7.22
2023-02-19T11:14:37.309Z,7.30
2023-02-19T11:17:05.801Z,6.95
2023-02-19T11:19:48.270Z,9.60
2023-02-19T11:22:40.419Z,7.20
2023-02-19T11:25:21.783Z,5.63
2023-02-19T11:28:22.736Z,5.82
2023-02-19T11:30:50.064Z,6.50
2023-02-19T11:33:32.303Z,8.50
2023-02-19T11:36:39.388Z,6.65
2023-02-19T11:39:30.976Z,8.95
2023-02-19T11:42:37.984Z,6.60
2023-02-19T11:45:28.584Z,6.38
2023-02-19T11:48:13.289Z,7.00
2023-02-19T11:50:57.828Z,5.80
2023-02-19T11:53:32.474Z,5.47
2023-02-19T11:56:23.721Z,6.45
2023-02-19T11:59:19.944Z,6.20
2023-02-19T12:02:19.380Z,5.63
2023-02-19T12:05:26.957Z,6.20
2023-02-19T12:08:20.943Z,6.30
2023-02-19T12:11:12.624Z,6.03
2023-02-19T12:14:19.551Z,6.95
2023-02-19T12:17:16.923Z,6.65
2023-02-19T12:20:07.825Z,6.53
2023-02-19T12:22:44.165Z,6.80
2023-02-19T12:25:25.670Z,7.30
2023-02-19T12:28:29.090Z,7.03
2023-02-19T12:31:25.414Z,7.88
2023-02-19T12:34:22.830Z,7.45
2023-02-19T12:37:29.661Z,6.40
2023-02-19T12:40:16.834Z,7.32
2023-02-19T12:43:13.584Z,7.13
2023-02-19T12:45:54.762Z,7.65
2023-02-19T12:49:02.638Z,7.65
2023-02-19T12:51:45.988Z,8.50
2023-02-19T12:54:18.577Z,8.38
2023-02-19T12:56:55.305Z,6.50
2023-02-19T12:59:39.894Z,6.47
2023-02-19T13:02:43.101Z,6.72
2023-02-19T13:05:41.146Z,6.50
2023-02-19T13:08:13.516Z,7.00
2023-02-19T13:10:51.010Z,6.47
2023-02-19T13:13:30.180Z,7.32
2023-02-19T13:16:02.808Z,6.78
2023-02-19T13:18:54.921Z,6.78
2023-02-19T13:21:45.566Z,6.13
2023-02-19T13:24:25.259Z,5.85
2023-02-19T13:27:32.247Z,6.82
2023-02-19T13:30:25.704Z,6.53
2023-02-19T13:33:20.220Z,7.67
2023-02-19T13:36:23.625Z,7.35
2023-02-19T13:38:51.447Z,6.15
2023-02-19T13:41:40.538Z,6.43
2023-02-19T13:44:18.238Z,7.45
2023-02-19T13:46:47.455Z,5.88
2023-02-19T13:49:41.374Z,6.38
2023-02-19T13:52:43.600Z,8.32
2023-02-19T13:55:51.942Z,8.00
2023-02-19T13:58:52.269Z,6.00
2023-02-19T14:01:19.935Z,7.88
2023-02-19T14:04:07.105Z,6.18
2023-02-19T14:07:14.023Z,6.50
2023-02-19T14:09:48.532Z,6.63
2023-02-19T14:12:21.318Z,6.38
2023-02-19T14:14:55.727Z,6.00
2023-02-19T14:17:43.494Z,5.88
2023-02-19T14:20:50.542Z,6.82
2023-02-19T14:23:24.303Z,6.15
2023-02-19T14:28:33.549Z,6.88
2023-02-19T14:31:12.098Z,7.82
2023-02-19T14:33:50.770Z,7.00
2023-02-19T14:36:35.679Z,6.85
2023-02-19T14:39:11.324Z,8.35
2023-02-19T14:41:41.717Z,7.75
2023-02-19T14:44:17.044Z,84.88
2023-02-19T14:47:09.609Z,65.10
2023-02-19T14:49:51.581Z,227.32
2023-02-19T14:52:32.094Z,137.73
2023-02-19T14:55:08.500Z,28.02
2023-02-19T14:57:40.833Z,11.50
2023-02-19T15:00:29.491Z,13.13
2023-02-19T15:02:59.663Z,11.60
2023-02-19T15:05:30.480Z,17.15
2023-02-19T15:08:02.950Z,16.85
2023-02-19T15:10:32.459Z,25.50
2023-02-19T15:13:04.660Z,32.40
2023-02-19T15:15:36.628Z,36.53
2023-02-19T15:18:05.458Z,17.23
2023-02-19T15:20:38.192Z,12.75
2023-02-19T15:23:07.544Z,12.45
2023-02-19T15:25:38.259Z,11.57
2023-02-19T15:28:30.644Z,10.52
2023-02-19T15:31:17.879Z,9.68
2023-02-19T15:33:50.625Z,12.73
2023-02-19T15:36:24.915Z,8.73
2023-02-19T15:38:58.176Z,7.78
2023-02-19T15:41:28.866Z,8.07
2023-02-19T15:44:02.384Z,8.68
2023-02-19T15:46:29.790Z,10.23
2023-02-19T15:49:15.958Z,13.82
2023-02-19T15:51:54.586Z,12.57
2023-02-19T15:54:29.076Z,9.68
2023-02-19T15:57:00.942Z,10.10
2023-02-19T15:59:39.010Z,11.18
2023-02-19T16:02:11.936Z,9.10
2023-02-19T16:04:41.055Z,7.97
2023-02-19T16:07:25.884Z,6.18
2023-02-19T16:10:23.576Z,7.70
2023-02-19T16:13:01.559Z,6.00
2023-02-19T16:15:31.024Z,6.70
2023-02-19T16:17:59.057Z,9.75
2023-02-19T16:20:33.510Z,8.32
2023-02-19T16:23:05.573Z,8.20
2023-02-19T16:25:44.326Z,9.10
2023-02-19T16:28:14.828Z,7.35
2023-02-19T16:30:42.225Z,6.55
2023-02-19T16:33:37.828Z,6.60
2023-02-19T16:36:35.837Z,8.57
2023-02-19T16:39:18.724Z,9.30
2023-02-19T16:42:11.286Z,7.63
2023-02-19T16:44:39.056Z,9.20
2023-02-19T16:47:14.796Z,8.10
2023-02-19T16:49:42.678Z,7.68
2023-02-19T16:52:14.655Z,7.55
2023-02-19T16:54:41.889Z,9.77
2023-02-19T16:57:09.146Z,8.82
2023-02-19T16:59:36.344Z,7.55
2023-02-19T17:02:05.664Z,8.15
2023-02-19T17:04:33.065Z,8.10
2023-02-19T17:07:01.155Z,7.10
2023-02-19T17:09:28.486Z,8.02
2023-02-19T17:11:55.846Z,9.27
2023-02-19T17:14:23.102Z,12.48
2023-02-19T17:16:50.246Z,9.27
2023-02-19T17:19:19.594Z,9.73
2023-02-19T17:21:47.546Z,10.57
2023-02-19T17:24:15.361Z,9.77
2023-02-19T17:26:42.634Z,8.50
2023-02-19T17:29:15.439Z,8.68
2023-02-19T17:31:42.926Z,7.23
2023-02-19T17:34:10.592Z,6.53
2023-02-19T17:36:38.143Z,7.55
2023-02-19T17:39:07.408Z,7.40
2023-02-19T17:41:34.692Z,8.07
2023-02-19T17:44:01.831Z,7.88
2023-02-19T17:46:29.015Z,7.82
2023-02-19T17:48:56.258Z,7.20
2023-02-19T17:51:23.522Z,6.53
2023-02-19T17:53:50.680Z,7.93
2023-02-19T17:56:23.270Z,7.57
2023-02-19T17:58:50.536Z,8.45
2023-02-19T18:01:17.924Z,8.20
2023-02-19T18:03:45.243Z,6.53
2023-02-19T18:06:12.782Z,7.15
2023-02-19T18:08:42.129Z,8.95
2023-02-19T18:11:09.402Z,6.80
2023-02-19T18:13:36.805Z,5.60
2023-02-19T18:16:06.159Z,5.85
2023-02-19T18:18:33.423Z,5.90
2023-02-19T18:21:00.528Z,7.90
2023-02-19T18:23:27.796Z,8.07
2023-02-19T18:25:55.035Z,8.07
2023-02-19T18:28:22.274Z,10.73
2023-02-19T18:30:49.464Z,9.73
2023-02-19T18:33:16.927Z,10.82
2023-02-19T18:35:44.254Z,10.10
2023-02-19T18:38:11.985Z,11.10
2023-02-19T18:40:39.144Z,9.18
2023-02-19T18:43:06.385Z,9.20
2023-02-19T18:45:37.227Z,8.82
2023-02-19T18:48:05.796Z,8.93
2023-02-19T18:50:34.914Z,9.60
2023-02-19T18:53:02.238Z,9.90
2023-02-19T18:55:29.508Z,9.82
2023-02-19T18:57:56.655Z,10.45
2023-02-19T19:00:26.826Z,9.77
2023-02-19T19:02:57.930Z,9.32
2023-02-19T19:05:25.471Z,10.07
2023-02-19T19:07:56.534Z,9.30
2023-02-19T19:10:24.212Z,10.38
2023-02-19T19:12:51.697Z,9.93
2023-02-19T19:15:19.195Z,12.32
2023-02-19T19:17:47.976Z,11.50
2023-02-19T19:20:18.171Z,10.23
2023-02-19T19:22:45.389Z,12.85
2023-02-19T19:25:12.726Z,15.65
2023-02-19T19:27:39.994Z,22.88
2023-02-19T19:30:08.081Z,26.67
2023-02-19T19:32:35.331Z,22.65
2023-02-19T19:35:02.574Z,21.95
2023-02-19T19:37:29.642Z,11.07
2023-02-19T19:39:57.381Z,17.45
2023-02-19T19:42:24.792Z,17.77
2023-02-19T19:44:52.180Z,14.18
2023-02-19T19:47:20.420Z,16.02
2023-02-19T19:49:47.836Z,18.42
2023-02-19T19:52:15.078Z,21.88
2023-02-19T19:54:43.333Z,18.65
2023-02-19T19:57:10.756Z,19.50
2023-02-19T19:59:39.591Z,11.40
2023-02-19T20:02:08.144Z,17.27
2023-02-19T20:04:35.318Z,10.98
2023-02-19T20:07:02.883Z,11.65
2023-02-19T20:09:30.306Z,13.35
2023-02-19T20:11:57.398Z,12.40
2023-02-19T20:14:25.965Z,12.75
2023-02-19T20:16:55.546Z,14.38
2023-02-19T20:19:23.902Z,15.65
2023-02-19T20:21:53.273Z,14.23
2023-02-19T20:24:24.645Z,12.80
2023-02-19T20:26:58.768Z,12.43
2023-02-19T20:29:31.039Z,11.60
2023-02-19T20:32:03.863Z,11.30
2023-02-19T20:34:31.985Z,10.37
2023-02-19T20:36:59.594Z,9.35
2023-02-19T20:39:29.293Z,8.75
2023-02-19T20:41:59.935Z,8.05
2023-02-19T20:44:30.039Z,7.88
2023-02-19T20:46:59.454Z,9.82
2023-02-19T20:49:30.956Z,9.52
2023-02-19T20:52:01.421Z,11.85
2023-02-19T20:54:32.391Z,11.30
2023-02-19T20:57:03.086Z,10.25
2023-02-19T20:59:35.503Z,12.20
2023-02-19T21:02:04.722Z,11.13
2023-02-19T21:04:32.365Z,9.90
2023-02-19T21:06:59.916Z,8.40
2023-02-19T21:09:27.202Z,7.03
2023-02-19T21:11:54.988Z,8.80
2023-02-19T21:14:22.998Z,9.93
2023-02-19T21:16:52.674Z,10.68
2023-02-19T21:19:21.808Z,11.48
2023-02-19T21:21:49.465Z,8.77
2023-02-19T21:24:17.195Z,10.65
2023-02-19T21:26:45.049Z,8.27
2023-02-19T21:29:19.358Z,10.10
2023-02-19T21:31:49.671Z,9.18
2023-02-19T21:34:20.284Z,8.77
2023-02-19T21:36:49.318Z,12.85
2023-02-19T21:39:18.938Z,11.02
2023-02-19T21:41:46.884Z,14.05
2023-02-19T21:44:14.519Z,13.98
2023-02-19T21:46:41.794Z,12.20
2023-02-19T21:49:09.256Z,11.93
2023-02-19T21:51:39.466Z,11.18
2023-02-19T21:54:13.116Z,10.10
2023-02-19T21:56:40.273Z,9.45
2023-02-19T21:59:07.562Z,10.13
2023-02-19T22:01:42.116Z,10.13
2023-02-19T22:04:14.066Z,9.43
2023-02-19T22:06:41.423Z,9.30
2023-02-19T22:09:10.002Z,12.52
2023-02-19T22:11:37.585Z,14.13
2023-02-19T22:14:04.782Z,12.70
2023-02-19T22:16:32.205Z,16.13
2023-02-19T22:19:00.178Z,13.98
2023-02-19T22:21:32.568Z,16.02
2023-02-19T22:24:01.020Z,10.18
2023-02-19T22:26:34.334Z,8.93
2023-02-19T22:29:08.092Z,13.45
2023-02-19T22:31:35.855Z,12.38
2023-02-19T22:34:03.669Z,11.93
2023-02-19T22:36:33.491Z,11.25
2023-02-19T22:39:01.688Z,12.90
2023-02-19T22:41:29.467Z,10.18
2023-02-19T22:43:57.972Z,8.90
2023-02-19T22:46:27.902Z,8.90
2023-02-19T22:48:55.153Z,11.88
2023-02-19T22:51:23.739Z,10.70
2023-02-19T22:53:52.989Z,10.13
2023-02-19T22:56:22.537Z,11.25
2023-02-19T22:58:49.815Z,11.93
2023-02-19T23:01:17.670Z,12.98
2023-02-19T23:03:52.577Z,12.10
2023-02-19T23:06:26.613Z,12.48
2023-02-19T23:11:26.468Z,11.85
2023-02-19T23:13:54.130Z,10.32
2023-02-19T23:16:21.607Z,8.93
2023-02-19T23:18:49.049Z,10.73
2023-02-19T23:21:17.826Z,12.68
2023-02-19T23:23:46.210Z,12.18
2023-02-19T23:26:15.047Z,13.60
2023-02-19T23:28:43.574Z,11.98
2023-02-19T23:31:11.727Z,12.13
2023-02-19T23:33:39.649Z,11.55
2023-02-19T23:36:07.316Z,10.93
2023-02-19T23:38:35.034Z,10.30
2023-02-19T23:41:02.655Z,11.93
2023-02-19T23:43:29.913Z,9.55
2023-02-19T23:45:57.224Z,11.55
2023-02-19T23:48:24.506Z,13.05
2023-02-19T23:50:51.643Z,14.93
2023-02-19T23:53:19.003Z,16.98
2023-02-19T23:55:46.248Z,11.30
2023-02-19T23:58:13.790Z,12.60
